createdAt,value
2022-12-04T04:50:31.672Z,37.50
2022-12-04T04:53:04.361Z,38.90
2022-12-04T04:55:36.357Z,38.73
2022-12-04T04:58:10.039Z,39.77
2022-12-04T05:00:39.106Z,37.37
2022-12-04T05:03:08.033Z,40.23
2022-12-04T05:05:38.424Z,39.43
2022-12-04T05:08:07.472Z,39.63
2022-12-04T05:10:36.637Z,37.90
2022-12-04T05:13:05.064Z,38.40
2022-12-04T05:15:33.617Z,36.30
2022-12-04T05:18:02.368Z,39.57
2022-12-04T05:20:29.940Z,40.27
2022-12-04T05:23:00.033Z,40.67
2022-12-04T05:25:28.811Z,39.07
2022-12-04T05:27:57.278Z,38.27
2022-12-04T05:30:25.854Z,37.53
2022-12-04T05:32:54.251Z,38.30
2022-12-04T05:35:23.088Z,39.20
2022-12-04T05:37:51.593Z,38.07
2022-12-04T05:40:21.953Z,39.87
2022-12-04T05:42:50.483Z,38.93
2022-12-04T05:45:19.317Z,38.97
2022-12-04T05:47:49.042Z,37.83
2022-12-04T05:50:17.437Z,38.50
2022-12-04T05:52:45.895Z,39.17
2022-12-04T05:55:14.341Z,38.37
2022-12-04T05:57:44.600Z,38.20
2022-12-04T06:00:14.588Z,38.37
2022-12-04T06:02:43.441Z,38.30
2022-12-04T06:05:11.975Z,39.93
2022-12-04T06:07:40.683Z,37.97
2022-12-04T06:10:09.433Z,36.90
2022-12-04T06:12:37.938Z,36.07
2022-12-04T06:15:08.731Z,39.20
2022-12-04T06:17:37.178Z,38.87
2022-12-04T06:20:11.266Z,38.83
2022-12-04T06:22:40.776Z,39.97
2022-12-04T06:25:09.983Z,36.27
2022-12-04T06:27:38.551Z,38.03
2022-12-04T06:30:10.953Z,37.90
2022-12-04T06:32:39.434Z,37.13
2022-12-04T06:35:08.435Z,38.97
2022-12-04T06:37:37.085Z,39.40
2022-12-04T06:40:07.527Z,37.47
2022-12-04T06:42:36.129Z,37.77
2022-12-04T06:45:04.874Z,37.77
2022-12-04T06:47:36.274Z,37.90
2022-12-04T06:50:05.741Z,37.03
2022-12-04T06:52:35.045Z,36.60
2022-12-04T06:55:03.577Z,40.23
2022-12-04T06:57:32.359Z,38.17
2022-12-04T07:00:00.860Z,39.50
2022-12-04T07:02:29.403Z,38.57
2022-12-04T07:04:59.295Z,36.77
2022-12-04T07:07:28.011Z,36.90
2022-12-04T07:09:56.799Z,36.37
2022-12-04T07:12:25.467Z,37.00
2022-12-04T07:14:54.476Z,36.43
2022-12-04T07:17:22.825Z,37.23
2022-12-04T07:19:51.518Z,35.43
2022-12-04T07:22:22.482Z,35.53
2022-12-04T07:24:51.042Z,38.20
2022-12-04T07:27:20.284Z,37.37
2022-12-04T07:29:48.982Z,37.47
2022-12-04T07:32:17.519Z,38.47
2022-12-04T07:34:48.332Z,35.33
2022-12-04T07:37:17.043Z,35.77
2022-12-04T07:39:47.003Z,37.43
2022-12-04T07:42:18.464Z,37.17
2022-12-04T07:44:51.012Z,36.13
2022-12-04T07:47:19.847Z,38.23
2022-12-04T07:49:48.318Z,36.37
2022-12-04T07:52:17.438Z,37.60
2022-12-04T07:54:47.447Z,36.93
2022-12-04T07:57:15.905Z,38.33
2022-12-04T07:59:44.431Z,36.53
2022-12-04T08:02:14.002Z,37.60
2022-12-04T08:04:43.757Z,38.03
2022-12-04T08:07:12.350Z,36.70
2022-12-04T08:09:40.925Z,39.93
2022-12-04T08:12:11.699Z,38.33
2022-12-04T08:14:41.894Z,38.57
2022-12-04T08:17:10.727Z,38.03
2022-12-04T08:19:39.364Z,39.80
2022-12-04T08:22:09.725Z,39.10
2022-12-04T08:24:38.492Z,38.37
2022-12-04T08:27:07.121Z,41.17
2022-12-04T08:29:37.910Z,39.67
2022-12-04T08:32:06.921Z,39.57
2022-12-04T08:34:35.820Z,37.87
2022-12-04T08:37:04.410Z,37.07
2022-12-04T08:39:32.938Z,40.53
2022-12-04T08:42:01.493Z,36.93
2022-12-04T08:44:29.945Z,39.37
2022-12-04T08:46:59.842Z,38.60
2022-12-04T08:49:29.005Z,38.13
2022-12-04T08:51:58.162Z,38.87
2022-12-04T08:54:28.517Z,37.77
2022-12-04T08:57:00.367Z,37.33
2022-12-04T08:59:28.832Z,36.87
2022-12-04T09:01:57.447Z,38.10
2022-12-04T09:04:27.818Z,36.13
2022-12-04T09:06:56.500Z,36.60
2022-12-04T09:09:25.345Z,36.57
2022-12-04T09:11:54.273Z,39.90
2022-12-04T09:14:26.068Z,40.23
2022-12-04T09:16:54.615Z,39.03
2022-12-04T09:19:31.452Z,37.07
2022-12-04T09:21:59.866Z,39.87
2022-12-04T09:24:31.596Z,39.17
2022-12-04T09:27:00.024Z,38.73
2022-12-04T09:29:28.448Z,38.83
2022-12-04T09:31:57.226Z,41.50
2022-12-04T09:34:26.297Z,40.40
2022-12-04T09:36:56.196Z,40.13
2022-12-04T09:39:24.687Z,39.23
2022-12-04T09:42:09.798Z,41.97
2022-12-04T09:44:42.929Z,38.63
2022-12-04T09:47:21.183Z,42.03
2022-12-04T09:49:54.632Z,38.47
2022-12-04T09:52:35.600Z,38.10
2022-12-04T09:55:06.824Z,36.47
2022-12-04T09:57:39.747Z,37.57
2022-12-04T10:00:13.918Z,37.90
2022-12-04T10:02:44.051Z,37.03
2022-12-04T10:05:20.088Z,36.50
2022-12-04T10:07:56.839Z,35.93
2022-12-04T10:10:34.077Z,36.80
2022-12-04T10:13:14.363Z,38.93
2022-12-04T10:15:51.133Z,40.27
2022-12-04T10:18:37.138Z,37.47
2022-12-04T10:21:25.939Z,39.53
2022-12-04T10:24:09.112Z,39.17
2022-12-04T10:26:43.191Z,35.90
2022-12-04T10:29:20.983Z,37.27
2022-12-04T10:31:51.168Z,38.47
2022-12-04T10:34:25.798Z,37.10
2022-12-04T10:36:57.052Z,36.93
2022-12-04T10:39:32.340Z,38.60
2022-12-04T10:42:05.093Z,39.40
2022-12-04T10:44:34.089Z,38.93
2022-12-04T10:47:06.374Z,34.33
2022-12-04T10:49:37.621Z,35.20
2022-12-04T10:52:10.073Z,35.97
2022-12-04T10:54:48.207Z,38.13
2022-12-04T10:57:18.137Z,37.57
2022-12-04T10:59:55.271Z,36.23
2022-12-04T11:02:27.887Z,37.03
2022-12-04T11:04:58.634Z,38.37
2022-12-04T11:07:29.957Z,35.50
2022-12-04T11:10:04.432Z,37.97
2022-12-04T11:12:33.467Z,39.07
2022-12-04T11:15:13.674Z,38.07
2022-12-04T11:17:42.436Z,37.00
2022-12-04T11:20:20.005Z,38.53
2022-12-04T11:22:52.969Z,33.60
2022-12-04T11:25:25.139Z,35.93
2022-12-04T11:27:56.256Z,34.90
2022-12-04T11:30:30.344Z,38.07
2022-12-04T11:32:59.802Z,35.20
2022-12-04T11:35:30.132Z,33.17
2022-12-04T11:38:08.584Z,33.50
2022-12-04T11:40:38.938Z,34.73
2022-12-04T11:43:15.238Z,34.70
2022-12-04T11:45:54.729Z,35.37
2022-12-04T11:48:23.761Z,34.00
2022-12-04T11:51:01.382Z,35.90
2022-12-04T11:53:43.324Z,32.90
2022-12-04T11:56:28.062Z,33.87
2022-12-04T11:59:20.386Z,34.03
2022-12-04T12:01:57.949Z,34.33
2022-12-04T12:04:55.991Z,33.50
2022-12-04T12:07:39.096Z,32.63
2022-12-04T12:10:15.023Z,32.50
2022-12-04T12:12:56.874Z,31.77
2022-12-04T12:15:36.021Z,34.20
2022-12-04T12:18:36.007Z,32.67
2022-12-04T12:21:09.914Z,33.53
2022-12-04T12:23:56.139Z,32.53
2022-12-04T12:26:32.126Z,32.53
2022-12-04T12:29:12.788Z,32.70
2022-12-04T12:32:01.290Z,30.83
2022-12-04T12:34:37.760Z,32.20
2022-12-04T12:37:15.969Z,30.10
2022-12-04T12:39:51.206Z,30.97
2022-12-04T12:42:27.117Z,31.77
2022-12-04T12:45:03.850Z,31.07
2022-12-04T12:47:39.363Z,30.37
2022-12-04T12:50:15.042Z,31.30
2022-12-04T12:52:49.158Z,33.03
2022-12-04T12:55:22.270Z,31.93
2022-12-04T12:57:59.418Z,29.30
2022-12-04T13:00:33.390Z,30.87
2022-12-04T13:03:05.241Z,29.93
2022-12-04T13:05:39.115Z,30.67
2022-12-04T13:08:17.811Z,27.93
2022-12-04T13:10:55.046Z,26.77
2022-12-04T13:13:28.004Z,29.83
2022-12-04T13:16:04.453Z,30.80
2022-12-04T13:18:39.909Z,29.90
2022-12-04T13:21:10.137Z,30.53
2022-12-04T13:23:59.090Z,29.63
2022-12-04T13:26:47.792Z,30.60
2022-12-04T13:29:31.881Z,29.90
2022-12-04T13:32:32.558Z,31.97
2022-12-04T13:35:20.024Z,29.07
2022-12-04T13:38:01.087Z,30.63
2022-12-04T13:40:41.838Z,31.00
2022-12-04T13:43:21.731Z,29.20
2022-12-04T13:45:53.677Z,28.07
2022-12-04T13:48:31.725Z,28.70
2022-12-04T13:51:09.307Z,34.67
2022-12-04T13:53:40.449Z,54.27
2022-12-04T13:56:25.258Z,40.10
2022-12-04T13:59:02.416Z,34.00
2022-12-04T14:01:37.162Z,32.17
2022-12-04T14:04:07.910Z,32.20
2022-12-04T14:06:40.491Z,30.50
2022-12-04T14:09:19.691Z,30.50
2022-12-04T14:11:59.498Z,31.00
2022-12-04T14:14:31.510Z,29.43
2022-12-04T14:17:01.628Z,30.47
2022-12-04T14:19:35.431Z,28.53
2022-12-04T14:22:06.070Z,30.73
2022-12-04T14:24:37.398Z,30.37
2022-12-04T14:27:34.892Z,30.20
2022-12-04T14:30:04.626Z,30.43
2022-12-04T14:32:36.595Z,29.77
2022-12-04T14:35:07.969Z,30.53
2022-12-04T14:37:41.422Z,32.47
2022-12-04T14:40:21.038Z,29.87
2022-12-04T14:42:51.435Z,32.50
2022-12-04T14:45:30.952Z,30.53
2022-12-04T14:48:14.471Z,32.40
2022-12-04T14:50:52.025Z,32.57
2022-12-04T14:53:33.229Z,34.13
2022-12-04T14:56:16.526Z,30.70
2022-12-04T14:58:47.992Z,33.40
2022-12-04T15:01:29.011Z,32.50
2022-12-04T15:04:05.354Z,32.37
2022-12-04T15:06:35.646Z,33.80
2022-12-04T15:09:23.628Z,33.57
2022-12-04T15:12:07.897Z,31.93
2022-12-04T15:15:11.996Z,34.07
2022-12-04T15:17:40.591Z,34.57
2022-12-04T15:20:19.150Z,32.57
2022-12-04T15:22:49.605Z,34.50
2022-12-04T15:25:21.556Z,34.17
2022-12-04T15:27:52.942Z,34.20
2022-12-04T15:30:25.517Z,34.73
2022-12-04T15:32:55.288Z,34.70
2022-12-04T15:35:27.275Z,35.20
2022-12-04T15:37:57.642Z,35.43
2022-12-04T15:40:32.394Z,36.03
2022-12-04T15:43:17.583Z,37.40
2022-12-04T15:45:46.747Z,34.33
2022-12-04T15:48:26.036Z,37.93
2022-12-04T15:51:00.378Z,39.47
2022-12-04T15:53:34.267Z,36.20
2022-12-04T15:56:06.023Z,37.27
2022-12-04T15:58:37.820Z,37.33
2022-12-04T16:01:10.840Z,39.80
2022-12-04T16:03:48.078Z,36.30
2022-12-04T16:06:20.241Z,38.60
2022-12-04T16:08:54.222Z,37.67
2022-12-04T16:11:42.340Z,37.50
2022-12-04T16:14:18.916Z,39.37
2022-12-04T16:16:52.660Z,39.70
2022-12-04T16:19:29.508Z,40.00
2022-12-04T16:22:01.788Z,38.77
2022-12-04T16:24:33.911Z,40.37
2022-12-04T16:27:04.463Z,38.67
2022-12-04T16:29:33.065Z,39.90
2022-12-04T16:32:04.048Z,42.27
2022-12-04T16:34:34.581Z,41.27
2022-12-04T16:37:03.867Z,42.63
2022-12-04T16:39:39.850Z,40.10
2022-12-04T16:42:16.696Z,41.33
2022-12-04T16:44:45.384Z,42.63
2022-12-04T16:47:14.884Z,40.70
2022-12-04T16:49:44.446Z,43.83
2022-12-04T16:52:13.456Z,40.73
2022-12-04T16:54:43.288Z,41.73
2022-12-04T16:57:11.748Z,40.57
2022-12-04T16:59:41.324Z,43.37
2022-12-04T17:02:18.623Z,42.10
2022-12-04T17:04:47.168Z,44.27
2022-12-04T17:07:16.360Z,45.77
2022-12-04T17:09:49.960Z,44.13
2022-12-04T17:12:18.770Z,47.10
2022-12-04T17:14:47.427Z,45.97
2022-12-04T17:17:18.694Z,44.97
2022-12-04T17:19:48.344Z,44.33
2022-12-04T17:22:21.306Z,45.07
2022-12-04T17:24:55.972Z,47.23
2022-12-04T17:27:26.217Z,45.07
2022-12-04T17:29:57.490Z,45.10
2022-12-04T17:32:27.865Z,45.40
2022-12-04T17:34:57.930Z,45.93
2022-12-04T17:37:29.092Z,44.10
2022-12-04T17:39:59.384Z,48.27
2022-12-04T17:42:31.020Z,46.60
2022-12-04T17:44:59.820Z,43.83
2022-12-04T17:47:36.144Z,46.13
2022-12-04T17:50:05.310Z,46.50
2022-12-04T17:52:36.643Z,45.13
2022-12-04T17:55:08.946Z,46.73
2022-12-04T17:57:37.687Z,47.73
2022-12-04T18:00:09.542Z,48.37
2022-12-04T18:02:38.276Z,44.93
2022-12-04T18:05:07.092Z,42.73
2022-12-04T18:07:35.665Z,41.70
2022-12-04T18:10:06.318Z,44.63
2022-12-04T18:12:34.869Z,46.90
2022-12-04T18:15:03.361Z,46.53
2022-12-04T18:17:31.724Z,44.70
2022-12-04T18:20:04.463Z,44.30
2022-12-04T18:22:33.853Z,45.57
2022-12-04T18:25:02.604Z,45.03
2022-12-04T18:27:32.509Z,47.13
2022-12-04T18:30:02.092Z,43.43
2022-12-04T18:32:33.683Z,46.17
2022-12-04T18:35:08.397Z,45.07
2022-12-04T18:37:42.635Z,45.20
2022-12-04T18:40:14.782Z,45.43
2022-12-04T18:42:44.736Z,45.53
2022-12-04T18:45:13.899Z,41.87
2022-12-04T18:47:42.327Z,43.47
2022-12-04T18:50:11.378Z,45.60
2022-12-04T18:52:43.587Z,46.40
2022-12-04T18:55:12.862Z,47.83
2022-12-04T18:57:41.526Z,44.70
2022-12-04T19:00:13.708Z,45.77
2022-12-04T19:02:47.124Z,46.17
2022-12-04T19:05:16.138Z,45.00
2022-12-04T19:07:45.455Z,44.43
2022-12-04T19:10:16.650Z,55.10
2022-12-04T19:12:46.225Z,44.33
2022-12-04T19:15:17.017Z,45.07
2022-12-04T19:17:46.608Z,43.43
2022-12-04T19:20:18.364Z,44.30
2022-12-04T19:22:46.912Z,42.43
2022-12-04T19:25:16.370Z,44.90
2022-12-04T19:27:45.079Z,43.57
2022-12-04T19:30:14.416Z,39.90
2022-12-04T19:32:45.384Z,42.43
2022-12-04T19:35:13.951Z,43.97
2022-12-04T19:37:44.811Z,42.57
2022-12-04T19:40:17.361Z,42.40
2022-12-04T19:42:46.773Z,41.00
2022-12-04T19:45:15.464Z,42.80
2022-12-04T19:47:47.392Z,40.40
2022-12-04T19:50:15.987Z,40.90
2022-12-04T19:52:45.843Z,43.07
2022-12-04T19:55:20.322Z,41.60
2022-12-04T19:57:49.768Z,39.23
2022-12-04T20:00:19.140Z,40.43
2022-12-04T20:02:49.011Z,42.60
2022-12-04T20:05:17.849Z,40.60
2022-12-04T20:07:46.342Z,41.20
2022-12-04T20:10:16.800Z,41.13
2022-12-04T20:12:45.250Z,41.80
2022-12-04T20:15:13.820Z,39.23
2022-12-04T20:17:42.205Z,38.83
2022-12-04T20:20:12.666Z,40.30
2022-12-04T20:22:41.104Z,39.57
2022-12-04T20:25:10.219Z,40.97
2022-12-04T20:27:38.883Z,41.33
2022-12-04T20:30:08.897Z,39.87
2022-12-04T20:32:37.431Z,41.40
2022-12-04T20:35:07.485Z,41.57
2022-12-04T20:37:38.177Z,39.83
2022-12-04T20:40:08.790Z,39.10
2022-12-04T20:42:37.271Z,43.27
2022-12-04T20:45:07.040Z,39.33
2022-12-04T20:47:36.857Z,42.23
2022-12-04T20:50:06.508Z,40.67
2022-12-04T20:52:36.522Z,41.77
2022-12-04T20:55:06.685Z,40.33
2022-12-04T20:57:36.192Z,40.67
2022-12-04T21:00:06.909Z,39.57
2022-12-04T21:02:39.608Z,40.87
2022-12-04T21:05:10.573Z,41.67
2022-12-04T21:07:41.408Z,43.27
2022-12-04T21:10:11.908Z,40.63
2022-12-04T21:12:58.144Z,41.20
2022-12-04T21:15:44.544Z,40.40
2022-12-04T21:18:13.487Z,41.27
2022-12-04T21:20:41.904Z,40.87
2022-12-04T21:23:11.756Z,55.97
2022-12-04T21:25:40.250Z,41.67
2022-12-04T21:28:09.793Z,41.70
2022-12-04T21:30:38.257Z,39.77
2022-12-04T21:33:06.867Z,39.20
2022-12-04T21:35:35.492Z,42.47
2022-12-04T21:38:04.744Z,38.77
2022-12-04T21:40:41.983Z,39.17
2022-12-04T21:43:12.662Z,38.13
2022-12-04T21:45:41.141Z,39.63
2022-12-04T21:48:11.555Z,38.33
2022-12-04T21:50:39.978Z,41.23
2022-12-04T21:53:08.992Z,40.87
2022-12-04T21:55:39.199Z,40.63
2022-12-04T21:58:07.908Z,39.50
2022-12-04T22:00:36.408Z,40.00
2022-12-04T22:03:06.242Z,41.70
2022-12-04T22:05:35.188Z,41.10
2022-12-04T22:08:04.777Z,41.67
2022-12-04T22:10:35.788Z,40.60
2022-12-04T22:13:05.622Z,41.77
2022-12-04T22:15:39.745Z,40.73
2022-12-04T22:18:09.770Z,42.43
2022-12-04T22:20:41.103Z,40.77
2022-12-04T22:23:10.860Z,41.17
2022-12-04T22:25:39.661Z,40.17
2022-12-04T22:28:10.682Z,39.93
2022-12-04T22:30:39.095Z,41.30
2022-12-04T22:33:08.691Z,41.10
2022-12-04T22:35:37.592Z,40.83
2022-12-04T22:38:06.338Z,45.53
2022-12-04T22:40:34.986Z,41.33
2022-12-04T22:43:03.851Z,44.33
2022-12-04T22:45:33.670Z,39.20
2022-12-04T22:48:02.577Z,41.13
2022-12-04T22:50:31.111Z,42.40
2022-12-04T22:52:59.829Z,41.87
2022-12-04T22:55:29.012Z,41.10
2022-12-04T22:57:57.606Z,42.83
2022-12-04T23:00:27.030Z,42.53
2022-12-04T23:02:56.983Z,43.50
2022-12-04T23:05:25.682Z,40.70
2022-12-04T23:07:54.957Z,43.03
2022-12-04T23:10:23.573Z,42.97
2022-12-04T23:12:51.960Z,44.67
2022-12-04T23:15:20.483Z,42.13
2022-12-04T23:17:48.926Z,42.57
2022-12-04T23:20:18.879Z,45.47
2022-12-04T23:22:48.194Z,42.47
2022-12-04T23:25:16.683Z,41.23
2022-12-04T23:27:46.639Z,42.00
2022-12-04T23:30:15.720Z,40.03
2022-12-04T23:32:45.880Z,40.17
2022-12-04T23:35:14.511Z,41.67
2022-12-04T23:37:45.657Z,43.30
2022-12-04T23:40:16.118Z,41.03
2022-12-04T23:42:44.919Z,40.67
2022-12-04T23:45:13.682Z,40.63
2022-12-04T23:47:42.324Z,44.87
